sensor_id;sensor_type;location;lat;lon;timestamp;P1;durP1;ratioP1;P2;durP2;ratioP2
65271;SDS011;51868;48.812;8.198;2023-02-03T00:00:06;5.00;;;2.50;;
65271;SDS011;51868;48.812;8.198;2023-02-03T00:02:34;8.05;;;2.40;;
65271;SDS011;51868;48.812;8.198;2023-02-03T00:05:02;4.25;;;2.55;;
65271;SDS011;51868;48.812;8.198;2023-02-03T00:07:31;4.85;;;2.25;;
65271;SDS011;51868;48.812;8.198;2023-02-03T00:10:01;4.93;;;1.95;;
65271;SDS011;51868;48.812;8.198;2023-02-03T00:12:29;5.57;;;2.03;;
65271;SDS011;51868;48.812;8.198;2023-02-03T00:14:57;4.93;;;2.03;;
65271;SDS011;51868;48.812;8.198;2023-02-03T00:17:25;4.30;;;2.50;;
65271;SDS011;51868;48.812;8.198;2023-02-03T00:19:52;7.05;;;2.75;;
65271;SDS011;51868;48.812;8.198;2023-02-03T00:22:20;5.90;;;2.92;;
65271;SDS011;51868;48.812;8.198;2023-02-03T00:24:48;6.35;;;2.75;;
65271;SDS011;51868;48.812;8.198;2023-02-03T00:27:28;5.90;;;3.00;;
65271;SDS011;51868;48.812;8.198;2023-02-03T00:29:57;4.90;;;2.33;;
65271;SDS011;51868;48.812;8.198;2023-02-03T00:32:30;6.25;;;2.47;;
65271;SDS011;51868;48.812;8.198;2023-02-03T00:34:58;7.90;;;2.45;;
65271;SDS011;51868;48.812;8.198;2023-02-03T00:37:25;4.95;;;2.03;;
65271;SDS011;51868;48.812;8.198;2023-02-03T00:39:53;4.15;;;2.00;;
65271;SDS011;51868;48.812;8.198;2023-02-03T00:42:21;3.47;;;2.15;;
65271;SDS011;51868;48.812;8.198;2023-02-03T00:44:50;5.55;;;2.45;;
65271;SDS011;51868;48.812;8.198;2023-02-03T00:47:17;4.43;;;2.35;;
65271;SDS011;51868;48.812;8.198;2023-02-03T00:49:45;4.70;;;2.00;;
65271;SDS011;51868;48.812;8.198;2023-02-03T00:52:13;6.25;;;2.85;;
65271;SDS011;51868;48.812;8.198;2023-02-03T00:54:40;8.23;;;2.28;;
65271;SDS011;51868;48.812;8.198;2023-02-03T00:57:08;5.05;;;1.92;;
65271;SDS011;51868;48.812;8.198;2023-02-03T00:59:36;5.45;;;2.45;;
65271;SDS011;51868;48.812;8.198;2023-02-03T01:02:05;5.93;;;2.17;;
65271;SDS011;51868;48.812;8.198;2023-02-03T01:04:32;3.70;;;2.00;;
65271;SDS011;51868;48.812;8.198;2023-02-03T01:07:00;4.97;;;2.15;;
65271;SDS011;51868;48.812;8.198;2023-02-03T01:09:28;4.20;;;2.30;;
65271;SDS011;51868;48.812;8.198;2023-02-03T01:11:59;3.45;;;2.00;;
65271;SDS011;51868;48.812;8.198;2023-02-03T01:14:26;6.55;;;2.00;;
65271;SDS011;51868;48.812;8.198;2023-02-03T01:16:54;5.63;;;2.10;;
65271;SDS011;51868;48.812;8.198;2023-02-03T01:19:23;3.92;;;1.80;;
65271;SDS011;51868;48.812;8.198;2023-02-03T01:21:51;2.85;;;1.90;;
65271;SDS011;51868;48.812;8.198;2023-02-03T01:24:19;4.63;;;1.80;;
65271;SDS011;51868;48.812;8.198;2023-02-03T01:26:47;4.90;;;1.80;;
65271;SDS011;51868;48.812;8.198;2023-02-03T01:29:14;5.43;;;1.77;;
65271;SDS011;51868;48.812;8.198;2023-02-03T01:31:42;4.82;;;2.00;;
65271;SDS011;51868;48.812;8.198;2023-02-03T01:34:11;5.63;;;1.70;;
65271;SDS011;51868;48.812;8.198;2023-02-03T01:36:42;6.50;;;2.20;;
65271;SDS011;51868;48.812;8.198;2023-02-03T01:39:12;5.88;;;2.17;;
65271;SDS011;51868;48.812;8.198;2023-02-03T01:41:40;4.03;;;1.90;;
65271;SDS011;51868;48.812;8.198;2023-02-03T01:49:30;2.33;;;1.75;;
65271;SDS011;51868;48.812;8.198;2023-02-03T01:52:03;4.65;;;1.90;;
65271;SDS011;51868;48.812;8.198;2023-02-03T01:54:32;4.25;;;2.30;;
65271;SDS011;51868;48.812;8.198;2023-02-03T01:57:05;6.05;;;2.17;;
65271;SDS011;51868;48.812;8.198;2023-02-03T01:59:37;3.10;;;1.83;;
65271;SDS011;51868;48.812;8.198;2023-02-03T02:02:05;5.72;;;2.00;;
65271;SDS011;51868;48.812;8.198;2023-02-03T02:04:35;3.75;;;2.45;;
65271;SDS011;51868;48.812;8.198;2023-02-03T02:07:10;4.18;;;1.98;;
65271;SDS011;51868;48.812;8.198;2023-02-03T02:09:38;5.35;;;2.30;;
65271;SDS011;51868;48.812;8.198;2023-02-03T02:12:07;4.50;;;2.50;;
65271;SDS011;51868;48.812;8.198;2023-02-03T02:14:36;5.25;;;2.15;;
65271;SDS011;51868;48.812;8.198;2023-02-03T02:17:05;4.07;;;2.10;;
65271;SDS011;51868;48.812;8.198;2023-02-03T02:19:44;3.88;;;2.45;;
65271;SDS011;51868;48.812;8.198;2023-02-03T02:22:40;3.00;;;2.17;;
65271;SDS011;51868;48.812;8.198;2023-02-03T02:25:28;4.60;;;1.85;;
65271;SDS011;51868;48.812;8.198;2023-02-03T02:28:27;3.50;;;1.92;;
65271;SDS011;51868;48.812;8.198;2023-02-03T02:31:31;4.03;;;1.83;;
65271;SDS011;51868;48.812;8.198;2023-02-03T02:34:12;3.47;;;1.70;;
65271;SDS011;51868;48.812;8.198;2023-02-03T02:36:47;3.90;;;1.85;;
65271;SDS011;51868;48.812;8.198;2023-02-03T02:39:24;4.45;;;1.90;;
65271;SDS011;51868;48.812;8.198;2023-02-03T02:42:00;3.60;;;1.88;;
65271;SDS011;51868;48.812;8.198;2023-02-03T02:44:34;3.42;;;1.75;;
65271;SDS011;51868;48.812;8.198;2023-02-03T02:47:10;4.53;;;1.60;;
65271;SDS011;51868;48.812;8.198;2023-02-03T02:49:43;4.07;;;2.00;;
65271;SDS011;51868;48.812;8.198;2023-02-03T02:52:15;1.88;;;1.38;;
65271;SDS011;51868;48.812;8.198;2023-02-03T02:54:46;3.67;;;1.40;;
65271;SDS011;51868;48.812;8.198;2023-02-03T02:57:19;2.42;;;1.60;;
65271;SDS011;51868;48.812;8.198;2023-02-03T02:59:48;5.75;;;1.50;;
65271;SDS011;51868;48.812;8.198;2023-02-03T03:02:17;2.05;;;1.50;;
65271;SDS011;51868;48.812;8.198;2023-02-03T03:04:45;4.07;;;1.52;;
65271;SDS011;51868;48.812;8.198;2023-02-03T03:07:17;2.92;;;1.30;;
65271;SDS011;51868;48.812;8.198;2023-02-03T03:09:47;4.07;;;1.88;;
65271;SDS011;51868;48.812;8.198;2023-02-03T03:12:19;1.70;;;1.23;;
65271;SDS011;51868;48.812;8.198;2023-02-03T03:14:51;4.30;;;1.63;;
65271;SDS011;51868;48.812;8.198;2023-02-03T03:17:26;4.25;;;1.30;;
65271;SDS011;51868;48.812;8.198;2023-02-03T03:19:56;2.63;;;1.47;;
65271;SDS011;51868;48.812;8.198;2023-02-03T03:22:29;2.13;;;1.30;;
65271;SDS011;51868;48.812;8.198;2023-02-03T03:25:02;2.83;;;1.30;;
65271;SDS011;51868;48.812;8.198;2023-02-03T03:27:35;4.18;;;1.52;;
65271;SDS011;51868;48.812;8.198;2023-02-03T03:30:07;2.30;;;1.30;;
65271;SDS011;51868;48.812;8.198;2023-02-03T03:32:39;1.98;;;0.95;;
65271;SDS011;51868;48.812;8.198;2023-02-03T03:35:07;2.10;;;1.10;;
65271;SDS011;51868;48.812;8.198;2023-02-03T03:37:35;2.80;;;1.45;;
65271;SDS011;51868;48.812;8.198;2023-02-03T03:40:08;2.45;;;1.30;;
65271;SDS011;51868;48.812;8.198;2023-02-03T03:42:39;4.50;;;1.48;;
65271;SDS011;51868;48.812;8.198;2023-02-03T03:45:12;4.25;;;1.40;;
65271;SDS011;51868;48.812;8.198;2023-02-03T03:47:46;3.08;;;1.48;;
65271;SDS011;51868;48.812;8.198;2023-02-03T03:50:18;2.00;;;1.20;;
65271;SDS011;51868;48.812;8.198;2023-02-03T03:52:48;1.23;;;0.80;;
65271;SDS011;51868;48.812;8.198;2023-02-03T03:55:18;2.28;;;1.10;;
65271;SDS011;51868;48.812;8.198;2023-02-03T03:57:47;2.80;;;1.05;;
65271;SDS011;51868;48.812;8.198;2023-02-03T04:00:21;2.33;;;1.27;;
65271;SDS011;51868;48.812;8.198;2023-02-03T04:02:54;3.47;;;1.00;;
65271;SDS011;51868;48.812;8.198;2023-02-03T04:05:24;2.37;;;1.23;;
65271;SDS011;51868;48.812;8.198;2023-02-03T04:07:53;1.75;;;1.00;;
65271;SDS011;51868;48.812;8.198;2023-02-03T04:10:22;3.97;;;2.08;;
65271;SDS011;51868;48.812;8.198;2023-02-03T04:12:53;2.95;;;1.00;;
65271;SDS011;51868;48.812;8.198;2023-02-03T04:15:21;2.22;;;1.42;;
65271;SDS011;51868;48.812;8.198;2023-02-03T04:17:48;2.10;;;1.20;;
65271;SDS011;51868;48.812;8.198;2023-02-03T04:20:17;2.15;;;1.00;;
65271;SDS011;51868;48.812;8.198;2023-02-03T04:22:45;2.25;;;1.17;;
65271;SDS011;51868;48.812;8.198;2023-02-03T04:25:13;2.42;;;1.15;;
65271;SDS011;51868;48.812;8.198;2023-02-03T04:27:40;2.22;;;1.20;;
65271;SDS011;51868;48.812;8.198;2023-02-03T04:30:09;2.40;;;1.00;;
65271;SDS011;51868;48.812;8.198;2023-02-03T04:32:37;1.50;;;0.93;;
65271;SDS011;51868;48.812;8.198;2023-02-03T04:35:06;1.63;;;0.93;;
65271;SDS011;51868;48.812;8.198;2023-02-03T04:37:35;2.95;;;1.20;;
65271;SDS011;51868;48.812;8.198;2023-02-03T04:40:03;2.28;;;1.08;;
65271;SDS011;51868;48.812;8.198;2023-02-03T04:42:32;2.88;;;1.20;;
65271;SDS011;51868;48.812;8.198;2023-02-03T04:44:59;3.33;;;1.05;;
65271;SDS011;51868;48.812;8.198;2023-02-03T04:47:27;1.95;;;1.00;;
65271;SDS011;51868;48.812;8.198;2023-02-03T04:49:55;1.15;;;0.82;;
65271;SDS011;51868;48.812;8.198;2023-02-03T04:52:22;3.38;;;1.40;;
65271;SDS011;51868;48.812;8.198;2023-02-03T04:54:51;2.95;;;1.20;;
65271;SDS011;51868;48.812;8.198;2023-02-03T04:57:19;3.90;;;1.10;;
65271;SDS011;51868;48.812;8.198;2023-02-03T04:59:47;1.95;;;0.80;;
65271;SDS011;51868;48.812;8.198;2023-02-03T05:02:14;4.05;;;1.10;;
65271;SDS011;51868;48.812;8.198;2023-02-03T05:04:42;2.13;;;1.10;;
65271;SDS011;51868;48.812;8.198;2023-02-03T05:07:10;1.58;;;1.23;;
65271;SDS011;51868;48.812;8.198;2023-02-03T05:09:38;4.00;;;1.20;;
65271;SDS011;51868;48.812;8.198;2023-02-03T05:12:07;5.82;;;1.50;;
65271;SDS011;51868;48.812;8.198;2023-02-03T05:14:34;2.72;;;1.50;;
65271;SDS011;51868;48.812;8.198;2023-02-03T05:17:02;3.72;;;1.33;;
65271;SDS011;51868;48.812;8.198;2023-02-03T05:19:30;4.18;;;1.10;;
65271;SDS011;51868;48.812;8.198;2023-02-03T05:21:57;3.15;;;1.23;;
65271;SDS011;51868;48.812;8.198;2023-02-03T05:24:25;2.17;;;1.38;;
65271;SDS011;51868;48.812;8.198;2023-02-03T05:26:52;4.45;;;1.10;;
65271;SDS011;51868;48.812;8.198;2023-02-03T05:29:21;2.05;;;1.40;;
65271;SDS011;51868;48.812;8.198;2023-02-03T05:31:49;3.65;;;1.23;;
65271;SDS011;51868;48.812;8.198;2023-02-03T05:34:17;3.53;;;1.40;;
65271;SDS011;51868;48.812;8.198;2023-02-03T05:36:45;3.88;;;1.40;;
65271;SDS011;51868;48.812;8.198;2023-02-03T05:39:13;4.47;;;1.88;;
65271;SDS011;51868;48.812;8.198;2023-02-03T05:41:40;2.58;;;1.48;;
65271;SDS011;51868;48.812;8.198;2023-02-03T05:44:25;6.47;;;1.55;;
65271;SDS011;51868;48.812;8.198;2023-02-03T05:46:56;4.82;;;1.55;;
65271;SDS011;51868;48.812;8.198;2023-02-03T05:49:25;3.15;;;1.67;;
65271;SDS011;51868;48.812;8.198;2023-02-03T05:51:53;4.47;;;1.55;;
65271;SDS011;51868;48.812;8.198;2023-02-03T05:54:21;2.50;;;1.60;;
65271;SDS011;51868;48.812;8.198;2023-02-03T05:56:49;2.88;;;2.13;;
65271;SDS011;51868;48.812;8.198;2023-02-03T05:59:17;5.68;;;1.98;;
65271;SDS011;51868;48.812;8.198;2023-02-03T06:01:46;2.40;;;1.60;;
65271;SDS011;51868;48.812;8.198;2023-02-03T06:04:13;3.17;;;1.42;;
65271;SDS011;51868;48.812;8.198;2023-02-03T06:06:41;3.08;;;1.30;;
65271;SDS011;51868;48.812;8.198;2023-02-03T06:09:09;3.45;;;1.63;;
65271;SDS011;51868;48.812;8.198;2023-02-03T06:11:37;5.90;;;1.40;;
65271;SDS011;51868;48.812;8.198;2023-02-03T06:14:04;6.60;;;1.45;;
65271;SDS011;51868;48.812;8.198;2023-02-03T06:16:32;5.47;;;1.77;;
65271;SDS011;51868;48.812;8.198;2023-02-03T06:19:01;4.85;;;1.75;;
65271;SDS011;51868;48.812;8.198;2023-02-03T06:21:29;3.20;;;1.55;;
65271;SDS011;51868;48.812;8.198;2023-02-03T06:23:57;2.22;;;1.40;;
65271;SDS011;51868;48.812;8.198;2023-02-03T06:26:24;7.10;;;2.00;;
65271;SDS011;51868;48.812;8.198;2023-02-03T06:28:52;5.68;;;1.80;;
65271;SDS011;51868;48.812;8.198;2023-02-03T06:31:20;5.32;;;1.60;;
65271;SDS011;51868;48.812;8.198;2023-02-03T06:33:48;4.60;;;1.67;;
65271;SDS011;51868;48.812;8.198;2023-02-03T06:36:17;7.78;;;1.85;;
65271;SDS011;51868;48.812;8.198;2023-02-03T06:38:45;14.23;;;2.42;;
65271;SDS011;51868;48.812;8.198;2023-02-03T06:41:12;6.22;;;1.85;;
65271;SDS011;51868;48.812;8.198;2023-02-03T06:43:40;7.47;;;2.03;;
65271;SDS011;51868;48.812;8.198;2023-02-03T06:46:07;3.90;;;2.20;;
65271;SDS011;51868;48.812;8.198;2023-02-03T06:48:35;3.08;;;1.67;;
65271;SDS011;51868;48.812;8.198;2023-02-03T06:51:03;4.93;;;2.08;;
65271;SDS011;51868;48.812;8.198;2023-02-03T06:53:33;7.18;;;2.13;;
65271;SDS011;51868;48.812;8.198;2023-02-03T06:56:00;3.90;;;1.60;;
65271;SDS011;51868;48.812;8.198;2023-02-03T06:58:28;4.65;;;1.98;;
65271;SDS011;51868;48.812;8.198;2023-02-03T07:00:56;5.25;;;1.70;;
65271;SDS011;51868;48.812;8.198;2023-02-03T07:03:24;4.50;;;2.20;;
65271;SDS011;51868;48.812;8.198;2023-02-03T07:05:52;8.15;;;2.40;;
65271;SDS011;51868;48.812;8.198;2023-02-03T07:08:19;4.07;;;2.13;;
65271;SDS011;51868;48.812;8.198;2023-02-03T07:10:48;5.13;;;1.80;;
65271;SDS011;51868;48.812;8.198;2023-02-03T07:13:19;9.85;;;2.17;;
65271;SDS011;51868;48.812;8.198;2023-02-03T07:15:47;3.95;;;2.38;;
65271;SDS011;51868;48.812;8.198;2023-02-03T07:18:15;6.50;;;2.67;;
65271;SDS011;51868;48.812;8.198;2023-02-03T07:21:04;2.97;;;2.20;;
65271;SDS011;51868;48.812;8.198;2023-02-03T07:23:33;4.10;;;1.88;;
65271;SDS011;51868;48.812;8.198;2023-02-03T07:26:02;4.55;;;2.83;;
65271;SDS011;51868;48.812;8.198;2023-02-03T07:28:31;7.60;;;2.30;;
65271;SDS011;51868;48.812;8.198;2023-02-03T07:30:59;4.68;;;1.80;;
65271;SDS011;51868;48.812;8.198;2023-02-03T07:33:27;7.45;;;2.10;;
65271;SDS011;51868;48.812;8.198;2023-02-03T07:35:55;3.60;;;1.92;;
65271;SDS011;51868;48.812;8.198;2023-02-03T07:38:25;9.40;;;2.38;;
65271;SDS011;51868;48.812;8.198;2023-02-03T07:40:54;4.38;;;2.42;;
65271;SDS011;51868;48.812;8.198;2023-02-03T07:43:23;4.60;;;2.30;;
65271;SDS011;51868;48.812;8.198;2023-02-03T07:45:51;5.53;;;2.42;;
65271;SDS011;51868;48.812;8.198;2023-02-03T07:48:18;8.10;;;2.45;;
65271;SDS011;51868;48.812;8.198;2023-02-03T07:50:46;4.03;;;1.90;;
65271;SDS011;51868;48.812;8.198;2023-02-03T07:53:15;4.43;;;2.20;;
65271;SDS011;51868;48.812;8.198;2023-02-03T07:55:43;5.75;;;2.53;;
65271;SDS011;51868;48.812;8.198;2023-02-03T07:58:11;9.73;;;2.25;;
65271;SDS011;51868;48.812;8.198;2023-02-03T08:00:41;8.32;;;2.58;;
65271;SDS011;51868;48.812;8.198;2023-02-03T08:03:09;5.72;;;2.30;;
65271;SDS011;51868;48.812;8.198;2023-02-03T08:05:37;4.60;;;1.90;;
65271;SDS011;51868;48.812;8.198;2023-02-03T08:08:04;4.57;;;2.53;;
65271;SDS011;51868;48.812;8.198;2023-02-03T08:10:32;8.20;;;2.38;;
65271;SDS011;51868;48.812;8.198;2023-02-03T08:13:00;3.38;;;2.28;;
65271;SDS011;51868;48.812;8.198;2023-02-03T08:15:27;8.00;;;2.42;;
65271;SDS011;51868;48.812;8.198;2023-02-03T08:17:56;8.23;;;2.38;;
65271;SDS011;51868;48.812;8.198;2023-02-03T08:20:24;7.70;;;1.90;;
65271;SDS011;51868;48.812;8.198;2023-02-03T08:22:52;5.07;;;2.28;;
65271;SDS011;51868;48.812;8.198;2023-02-03T08:25:20;4.15;;;2.13;;
65271;SDS011;51868;48.812;8.198;2023-02-03T08:27:48;3.03;;;1.98;;
65271;SDS011;51868;48.812;8.198;2023-02-03T08:30:16;6.13;;;2.47;;
65271;SDS011;51868;48.812;8.198;2023-02-03T08:32:44;8.05;;;2.20;;
65271;SDS011;51868;48.812;8.198;2023-02-03T08:35:13;4.40;;;2.25;;
65271;SDS011;51868;48.812;8.198;2023-02-03T08:37:41;8.30;;;2.60;;
65271;SDS011;51868;48.812;8.198;2023-02-03T08:40:12;5.47;;;2.45;;
65271;SDS011;51868;48.812;8.198;2023-02-03T08:42:40;2.70;;;1.98;;
65271;SDS011;51868;48.812;8.198;2023-02-03T08:45:07;5.18;;;2.42;;
65271;SDS011;51868;48.812;8.198;2023-02-03T08:47:36;7.32;;;2.67;;
65271;SDS011;51868;48.812;8.198;2023-02-03T08:50:05;5.47;;;2.63;;
65271;SDS011;51868;48.812;8.198;2023-02-03T08:52:35;3.63;;;2.08;;
65271;SDS011;51868;48.812;8.198;2023-02-03T08:55:03;6.38;;;2.63;;
65271;SDS011;51868;48.812;8.198;2023-02-03T08:57:32;4.90;;;2.22;;
65271;SDS011;51868;48.812;8.198;2023-02-03T09:00:00;6.25;;;2.10;;
65271;SDS011;51868;48.812;8.198;2023-02-03T09:02:28;6.25;;;2.55;;
65271;SDS011;51868;48.812;8.198;2023-02-03T09:04:56;6.90;;;2.65;;
65271;SDS011;51868;48.812;8.198;2023-02-03T09:07:24;3.80;;;2.20;;
65271;SDS011;51868;48.812;8.198;2023-02-03T09:09:56;9.25;;;2.78;;
65271;SDS011;51868;48.812;8.198;2023-02-03T09:12:24;5.45;;;2.45;;
65271;SDS011;51868;48.812;8.198;2023-02-03T09:14:52;2.90;;;2.00;;
65271;SDS011;51868;48.812;8.198;2023-02-03T09:17:19;4.28;;;2.45;;
65271;SDS011;51868;48.812;8.198;2023-02-03T09:19:47;6.32;;;2.60;;
65271;SDS011;51868;48.812;8.198;2023-02-03T09:22:15;6.70;;;2.58;;
65271;SDS011;51868;48.812;8.198;2023-02-03T09:24:42;6.57;;;2.88;;
65271;SDS011;51868;48.812;8.198;2023-02-03T09:27:12;4.07;;;2.58;;
65271;SDS011;51868;48.812;8.198;2023-02-03T09:29:39;5.47;;;2.53;;
65271;SDS011;51868;48.812;8.198;2023-02-03T09:32:07;4.93;;;2.30;;
65271;SDS011;51868;48.812;8.198;2023-02-03T09:34:36;3.53;;;1.98;;
65271;SDS011;51868;48.812;8.198;2023-02-03T09:37:04;6.03;;;2.42;;
65271;SDS011;51868;48.812;8.198;2023-02-03T09:39:32;6.00;;;2.13;;
65271;SDS011;51868;48.812;8.198;2023-02-03T09:42:06;4.38;;;2.40;;
65271;SDS011;51868;48.812;8.198;2023-02-03T09:44:45;9.35;;;3.40;;
65271;SDS011;51868;48.812;8.198;2023-02-03T09:47:17;8.50;;;3.53;;
65271;SDS011;51868;48.812;8.198;2023-02-03T09:49:49;2.90;;;2.22;;
65271;SDS011;51868;48.812;8.198;2023-02-03T09:52:18;4.80;;;2.38;;
65271;SDS011;51868;48.812;8.198;2023-02-03T09:54:51;8.88;;;2.53;;
65271;SDS011;51868;48.812;8.198;2023-02-03T09:57:23;3.55;;;2.10;;
65271;SDS011;51868;48.812;8.198;2023-02-03T09:59:55;3.22;;;2.10;;
65271;SDS011;51868;48.812;8.198;2023-02-03T10:02:28;5.83;;;2.43;;
65271;SDS011;51868;48.812;8.198;2023-02-03T10:05:06;8.43;;;2.40;;
65271;SDS011;51868;48.812;8.198;2023-02-03T10:07:42;4.30;;;2.63;;
65271;SDS011;51868;48.812;8.198;2023-02-03T10:10:20;4.10;;;2.05;;
65271;SDS011;51868;48.812;8.198;2023-02-03T10:13:00;5.63;;;2.45;;
65271;SDS011;51868;48.812;8.198;2023-02-03T10:15:39;6.22;;;2.20;;
65271;SDS011;51868;48.812;8.198;2023-02-03T10:18:16;4.38;;;2.45;;
65271;SDS011;51868;48.812;8.198;2023-02-03T10:20:48;2.83;;;1.77;;
65271;SDS011;51868;48.812;8.198;2023-02-03T10:23:19;5.85;;;2.30;;
65271;SDS011;51868;48.812;8.198;2023-02-03T10:25:50;4.50;;;2.30;;
65271;SDS011;51868;48.812;8.198;2023-02-03T10:28:23;5.93;;;2.30;;
65271;SDS011;51868;48.812;8.198;2023-02-03T10:30:56;3.03;;;2.15;;
65271;SDS011;51868;48.812;8.198;2023-02-03T10:33:26;3.17;;;2.38;;
65271;SDS011;51868;48.812;8.198;2023-02-03T10:36:01;5.45;;;2.30;;
65271;SDS011;51868;48.812;8.198;2023-02-03T10:38:39;5.70;;;1.90;;
65271;SDS011;51868;48.812;8.198;2023-02-03T10:41:13;6.82;;;2.10;;
65271;SDS011;51868;48.812;8.198;2023-02-03T10:43:42;2.70;;;1.80;;
65271;SDS011;51868;48.812;8.198;2023-02-03T10:46:19;3.55;;;2.00;;
65271;SDS011;51868;48.812;8.198;2023-02-03T10:48:53;3.30;;;2.40;;
65271;SDS011;51868;48.812;8.198;2023-02-03T10:51:21;4.20;;;2.20;;
65271;SDS011;51868;48.812;8.198;2023-02-03T10:53:50;3.30;;;1.83;;
65271;SDS011;51868;48.812;8.198;2023-02-03T10:56:20;2.88;;;2.05;;
65271;SDS011;51868;48.812;8.198;2023-02-03T10:58:50;3.33;;;2.00;;
65271;SDS011;51868;48.812;8.198;2023-02-03T11:01:22;3.20;;;2.08;;
65271;SDS011;51868;48.812;8.198;2023-02-03T11:03:56;4.85;;;2.38;;
65271;SDS011;51868;48.812;8.198;2023-02-03T11:06:26;5.60;;;2.28;;
65271;SDS011;51868;48.812;8.198;2023-02-03T11:08:56;4.13;;;2.30;;
65271;SDS011;51868;48.812;8.198;2023-02-03T11:11:25;7.10;;;2.70;;
65271;SDS011;51868;48.812;8.198;2023-02-03T11:14:10;6.20;;;2.72;;
65271;SDS011;51868;48.812;8.198;2023-02-03T11:16:44;4.22;;;2.38;;
65271;SDS011;51868;48.812;8.198;2023-02-03T11:19:14;5.13;;;2.63;;
65271;SDS011;51868;48.812;8.198;2023-02-03T11:21:45;4.15;;;2.35;;
65271;SDS011;51868;48.812;8.198;2023-02-03T11:24:17;6.55;;;2.40;;
65271;SDS011;51868;48.812;8.198;2023-02-03T11:26:47;3.50;;;2.23;;
65271;SDS011;51868;48.812;8.198;2023-02-03T11:29:18;4.93;;;1.90;;
65271;SDS011;51868;48.812;8.198;2023-02-03T11:31:52;5.10;;;2.60;;
65271;SDS011;51868;48.812;8.198;2023-02-03T11:34:23;4.55;;;2.22;;
65271;SDS011;51868;48.812;8.198;2023-02-03T11:36:53;3.65;;;2.20;;
65271;SDS011;51868;48.812;8.198;2023-02-03T11:39:25;5.88;;;2.70;;
65271;SDS011;51868;48.812;8.198;2023-02-03T11:41:54;5.45;;;2.72;;
65271;SDS011;51868;48.812;8.198;2023-02-03T11:44:23;3.15;;;2.40;;
65271;SDS011;51868;48.812;8.198;2023-02-03T11:46:56;5.03;;;2.42;;
65271;SDS011;51868;48.812;8.198;2023-02-03T11:52:17;7.32;;;2.58;;
65271;SDS011;51868;48.812;8.198;2023-02-03T11:54:58;5.35;;;2.35;;
65271;SDS011;51868;48.812;8.198;2023-02-03T11:57:36;4.53;;;2.30;;
65271;SDS011;51868;48.812;8.198;2023-02-03T12:00:13;8.60;;;2.50;;
65271;SDS011;51868;48.812;8.198;2023-02-03T12:03:14;5.97;;;2.30;;
65271;SDS011;51868;48.812;8.198;2023-02-03T12:05:57;6.25;;;2.08;;
65271;SDS011;51868;48.812;8.198;2023-02-03T12:08:40;4.17;;;2.53;;
65271;SDS011;51868;48.812;8.198;2023-02-03T12:11:18;5.57;;;2.15;;
65271;SDS011;51868;48.812;8.198;2023-02-03T12:13:58;3.67;;;2.30;;
65271;SDS011;51868;48.812;8.198;2023-02-03T12:16:47;5.03;;;2.55;;
65271;SDS011;51868;48.812;8.198;2023-02-03T12:19:25;3.88;;;2.00;;
65271;SDS011;51868;48.812;8.198;2023-02-03T12:22:05;6.40;;;2.40;;
65271;SDS011;51868;48.812;8.198;2023-02-03T12:24:43;2.97;;;1.92;;
65271;SDS011;51868;48.812;8.198;2023-02-03T12:27:27;5.60;;;2.30;;
65271;SDS011;51868;48.812;8.198;2023-02-03T12:30:08;3.55;;;2.00;;
65271;SDS011;51868;48.812;8.198;2023-02-03T12:32:41;2.85;;;1.80;;
65271;SDS011;51868;48.812;8.198;2023-02-03T12:35:16;4.43;;;2.40;;
65271;SDS011;51868;48.812;8.198;2023-02-03T12:37:50;4.15;;;2.47;;
65271;SDS011;51868;48.812;8.198;2023-02-03T12:40:25;4.20;;;2.20;;
65271;SDS011;51868;48.812;8.198;2023-02-03T12:43:01;4.90;;;2.80;;
65271;SDS011;51868;48.812;8.198;2023-02-03T12:45:41;4.55;;;2.17;;
65271;SDS011;51868;48.812;8.198;2023-02-03T12:48:18;6.00;;;2.50;;
65271;SDS011;51868;48.812;8.198;2023-02-03T12:50:52;6.25;;;2.58;;
65271;SDS011;51868;48.812;8.198;2023-02-03T12:53:23;6.88;;;2.53;;
65271;SDS011;51868;48.812;8.198;2023-02-03T12:55:56;3.97;;;2.28;;
65271;SDS011;51868;48.812;8.198;2023-02-03T12:58:28;3.70;;;1.75;;
65271;SDS011;51868;48.812;8.198;2023-02-03T13:01:03;4.68;;;2.60;;
65271;SDS011;51868;48.812;8.198;2023-02-03T13:03:35;4.05;;;2.25;;
65271;SDS011;51868;48.812;8.198;2023-02-03T13:06:11;4.43;;;2.03;;
65271;SDS011;51868;48.812;8.198;2023-02-03T13:08:46;2.22;;;1.60;;
65271;SDS011;51868;48.812;8.198;2023-02-03T13:11:21;5.32;;;2.65;;
65271;SDS011;51868;48.812;8.198;2023-02-03T13:13:54;2.90;;;1.23;;
65271;SDS011;51868;48.812;8.198;2023-02-03T13:16:25;2.45;;;1.63;;
65271;SDS011;51868;48.812;8.198;2023-02-03T13:18:57;2.90;;;1.50;;
65271;SDS011;51868;48.812;8.198;2023-02-03T13:21:29;2.00;;;1.50;;
65271;SDS011;51868;48.812;8.198;2023-02-03T13:23:57;8.20;;;2.70;;
65271;SDS011;51868;48.812;8.198;2023-02-03T13:32:34;2.22;;;1.00;;
65271;SDS011;51868;48.812;8.198;2023-02-03T13:35:20;1.65;;;1.38;;
65271;SDS011;51868;48.812;8.198;2023-02-03T13:38:08;1.67;;;1.00;;
65271;SDS011;51868;48.812;8.198;2023-02-03T13:40:48;1.23;;;0.80;;
65271;SDS011;51868;48.812;8.198;2023-02-03T13:43:25;3.28;;;1.42;;
65271;SDS011;51868;48.812;8.198;2023-02-03T13:46:04;1.67;;;1.00;;
65271;SDS011;51868;48.812;8.198;2023-02-03T13:48:42;2.35;;;1.20;;
65271;SDS011;51868;48.812;8.198;2023-02-03T13:51:13;1.40;;;0.90;;
65271;SDS011;51868;48.812;8.198;2023-02-03T13:53:46;1.50;;;1.20;;
65271;SDS011;51868;48.812;8.198;2023-02-03T13:56:16;2.40;;;1.20;;
65271;SDS011;51868;48.812;8.198;2023-02-03T13:59:01;1.52;;;0.80;;
65271;SDS011;51868;48.812;8.198;2023-02-03T14:01:31;3.00;;;1.30;;
65271;SDS011;51868;48.812;8.198;2023-02-03T14:04:02;1.23;;;1.10;;
65271;SDS011;51868;48.812;8.198;2023-02-03T14:09:35;2.53;;;1.55;;
65271;SDS011;51868;48.812;8.198;2023-02-03T14:12:20;0.88;;;0.80;;
65271;SDS011;51868;48.812;8.198;2023-02-03T14:15:19;0.90;;;0.80;;
65271;SDS011;51868;48.812;8.198;2023-02-03T14:17:57;1.27;;;0.85;;
65271;SDS011;51868;48.812;8.198;2023-02-03T14:20:38;2.38;;;1.90;;
65271;SDS011;51868;48.812;8.198;2023-02-03T14:23:09;1.85;;;1.25;;
65271;SDS011;51868;48.812;8.198;2023-02-03T14:25:41;0.95;;;0.85;;
65271;SDS011;51868;48.812;8.198;2023-02-03T14:28:12;1.77;;;0.82;;
65271;SDS011;51868;48.812;8.198;2023-02-03T14:33:52;0.70;;;0.70;;
65271;SDS011;51868;48.812;8.198;2023-02-03T14:36:32;1.38;;;0.80;;
65271;SDS011;51868;48.812;8.198;2023-02-03T14:39:05;1.07;;;0.80;;
65271;SDS011;51868;48.812;8.198;2023-02-03T14:42:07;1.67;;;0.98;;
65271;SDS011;51868;48.812;8.198;2023-02-03T14:44:47;0.98;;;0.80;;
65271;SDS011;51868;48.812;8.198;2023-02-03T14:47:25;3.10;;;2.00;;
65271;SDS011;51868;48.812;8.198;2023-02-03T14:50:11;1.15;;;0.95;;
65271;SDS011;51868;48.812;8.198;2023-02-03T14:52:52;2.00;;;0.93;;
65271;SDS011;51868;48.812;8.198;2023-02-03T14:55:35;2.53;;;1.20;;
65271;SDS011;51868;48.812;8.198;2023-02-03T14:58:16;2.13;;;1.40;;
65271;SDS011;51868;48.812;8.198;2023-02-03T15:00:53;2.90;;;1.30;;
65271;SDS011;51868;48.812;8.198;2023-02-03T15:03:25;1.95;;;1.10;;
65271;SDS011;51868;48.812;8.198;2023-02-03T15:06:00;1.40;;;1.25;;
65271;SDS011;51868;48.812;8.198;2023-02-03T15:08:29;1.13;;;1.00;;
65271;SDS011;51868;48.812;8.198;2023-02-03T15:14:13;1.35;;;1.25;;
65271;SDS011;51868;48.812;8.198;2023-02-03T15:16:46;3.17;;;1.48;;
65271;SDS011;51868;48.812;8.198;2023-02-03T15:19:16;2.08;;;1.10;;
65271;SDS011;51868;48.812;8.198;2023-02-03T15:21:47;1.05;;;0.95;;
65271;SDS011;51868;48.812;8.198;2023-02-03T15:24:15;1.55;;;1.10;;
65271;SDS011;51868;48.812;8.198;2023-02-03T15:26:47;2.05;;;0.90;;
65271;SDS011;51868;48.812;8.198;2023-02-03T15:29:25;1.35;;;1.20;;
65271;SDS011;51868;48.812;8.198;2023-02-03T15:32:05;1.30;;;1.05;;
65271;SDS011;51868;48.812;8.198;2023-02-03T15:34:38;1.95;;;1.00;;
65271;SDS011;51868;48.812;8.198;2023-02-03T15:37:12;1.70;;;1.38;;